sensor_id;sensor_type;location;lat;lon;timestamp;pressure;altitude;pressure_sealevel;temperature;humidity
3428;BME280;1727;42.624;23.406;2022-08-19T09:35:25;94607.34;;;33.47;29.62
3428;BME280;1727;42.624;23.406;2022-08-19T09:37:54;94608.94;;;33.58;31.12
3428;BME280;1727;42.624;23.406;2022-08-19T09:40:22;94606.38;;;33.77;31.22
3428;BME280;1727;42.624;23.406;2022-08-19T09:42:50;94600.66;;;33.78;29.63
3428;BME280;1727;42.624;23.406;2022-08-19T09:45:20;94607.13;;;33.93;30.90
3428;BME280;1727;42.624;23.406;2022-08-19T09:47:48;94602.25;;;33.90;28.60
3428;BME280;1727;42.624;23.406;2022-08-19T09:50:16;94603.25;;;33.99;29.64
3428;BME280;1727;42.624;23.406;2022-08-19T09:52:45;94598.88;;;34.03;28.71
3428;BME280;1727;42.624;23.406;2022-08-19T09:55:13;94592.94;;;33.96;27.95
3428;BME280;1727;42.624;23.406;2022-08-19T09:57:41;94596.47;;;33.96;29.38
3428;BME280;1727;42.624;23.406;2022-08-19T10:00:09;94597.22;;;34.07;29.33
3428;BME280;1727;42.624;23.406;2022-08-19T10:02:36;94591.94;;;34.21;30.36
3428;BME280;1727;42.624;23.406;2022-08-19T10:05:04;94579.59;;;34.28;30.53
3428;BME280;1727;42.624;23.406;2022-08-19T10:07:50;94576.31;;;34.31;30.40
3428;BME280;1727;42.624;23.406;2022-08-19T10:10:17;94584.16;;;34.38;29.74
3428;BME280;1727;42.624;23.406;2022-08-19T10:12:44;94572.16;;;34.44;30.70
3428;BME280;1727;42.624;23.406;2022-08-19T10:15:37;94583.28;;;34.47;28.82
3428;BME280;1727;42.624;23.406;2022-08-19T10:18:20;94570.25;;;34.44;29.39
3428;BME280;1727;42.624;23.406;2022-08-19T10:21:05;94574.06;;;34.43;29.76
3428;BME280;1727;42.624;23.406;2022-08-19T10:23:36;94572.53;;;34.27;30.03
3428;BME280;1727;42.624;23.406;2022-08-19T10:26:04;94566.78;;;34.34;30.43
3428;BME280;1727;42.624;23.406;2022-08-19T10:28:32;94566.59;;;34.20;29.63
3428;BME280;1727;42.624;23.406;2022-08-19T10:31:03;94566.84;;;34.24;29.77
3428;BME280;1727;42.624;23.406;2022-08-19T10:33:32;94557.16;;;34.12;30.35
3428;BME280;1727;42.624;23.406;2022-08-19T10:36:00;94551.72;;;34.07;29.51
3428;BME280;1727;42.624;23.406;2022-08-19T10:38:26;94560.59;;;33.89;30.23
3428;BME280;1727;42.624;23.406;2022-08-19T10:40:56;94562.63;;;33.68;28.92
3428;BME280;1727;42.624;23.406;2022-08-19T10:43:23;94560.47;;;33.65;28.99
3428;BME280;1727;42.624;23.406;2022-08-19T10:45:53;94561.59;;;33.59;30.39
3428;BME280;1727;42.624;23.406;2022-08-19T10:48:22;94554.53;;;33.58;30.45
3428;BME280;1727;42.624;23.406;2022-08-19T10:50:48;94556.09;;;33.64;30.20
3428;BME280;1727;42.624;23.406;2022-08-19T10:53:32;94545.94;;;33.75;30.41
3428;BME280;1727;42.624;23.406;2022-08-19T10:56:00;94553.16;;;33.61;30.45
3428;BME280;1727;42.624;23.406;2022-08-19T10:58:45;94548.31;;;33.47;30.44
3428;BME280;1727;42.624;23.406;2022-08-19T11:01:12;94545.84;;;33.51;30.56
3428;BME280;1727;42.624;23.406;2022-08-19T11:06:19;94548.03;;;33.49;31.10
3428;BME280;1727;42.624;23.406;2022-08-19T11:08:46;94547.47;;;33.57;29.84
3428;BME280;1727;42.624;23.406;2022-08-19T11:11:15;94539.16;;;33.72;31.17
3428;BME280;1727;42.624;23.406;2022-08-19T11:13:43;94532.00;;;33.81;30.91
3428;BME280;1727;42.624;23.406;2022-08-19T11:16:15;94537.47;;;33.81;30.45
3428;BME280;1727;42.624;23.406;2022-08-19T11:18:43;94544.56;;;33.77;30.65
3428;BME280;1727;42.624;23.406;2022-08-19T11:21:12;94544.03;;;33.75;30.21
3428;BME280;1727;42.624;23.406;2022-08-19T11:23:40;94543.75;;;33.77;31.36
3428;BME280;1727;42.624;23.406;2022-08-19T11:26:07;94535.84;;;33.80;30.55
3428;BME280;1727;42.624;23.406;2022-08-19T11:28:35;94530.94;;;33.88;30.31
3428;BME280;1727;42.624;23.406;2022-08-19T11:31:02;94529.56;;;33.90;31.91
3428;BME280;1727;42.624;23.406;2022-08-19T11:33:29;94530.31;;;33.96;31.14
3428;BME280;1727;42.624;23.406;2022-08-19T11:35:57;94527.13;;;33.78;30.65
3428;BME280;1727;42.624;23.406;2022-08-19T11:38:25;94517.88;;;33.79;30.92
3428;BME280;1727;42.624;23.406;2022-08-19T11:40:56;94510.78;;;33.89;31.71
3428;BME280;1727;42.624;23.406;2022-08-19T11:43:23;94523.06;;;33.86;30.66
3428;BME280;1727;42.624;23.406;2022-08-19T11:45:53;94514.66;;;33.72;29.39
3428;BME280;1727;42.624;23.406;2022-08-19T11:48:20;94517.88;;;33.84;29.77
3428;BME280;1727;42.624;23.406;2022-08-19T11:50:48;94509.09;;;33.93;31.49
3428;BME280;1727;42.624;23.406;2022-08-19T11:53:16;94506.84;;;34.00;30.32
3428;BME280;1727;42.624;23.406;2022-08-19T11:55:44;94508.34;;;33.87;30.94
3428;BME280;1727;42.624;23.406;2022-08-19T11:58:12;94501.34;;;33.71;30.33
3428;BME280;1727;42.624;23.406;2022-08-19T12:00:39;94500.00;;;33.68;31.27
3428;BME280;1727;42.624;23.406;2022-08-19T12:03:08;94502.69;;;33.73;31.24
3428;BME280;1727;42.624;23.406;2022-08-19T12:05:36;94495.63;;;33.72;31.90
3428;BME280;1727;42.624;23.406;2022-08-19T12:08:04;94493.09;;;33.81;31.44
3428;BME280;1727;42.624;23.406;2022-08-19T12:10:31;94496.75;;;33.66;29.92
3428;BME280;1727;42.624;23.406;2022-08-19T12:12:58;94488.25;;;33.73;30.59
3428;BME280;1727;42.624;23.406;2022-08-19T12:15:26;94486.59;;;33.77;31.75
3428;BME280;1727;42.624;23.406;2022-08-19T12:17:56;94484.69;;;33.77;31.33
3428;BME280;1727;42.624;23.406;2022-08-19T12:23:50;94467.50;;;33.87;30.86
3428;BME280;1727;42.624;23.406;2022-08-19T12:31:27;94463.16;;;33.81;30.78
3428;BME280;1727;42.624;23.406;2022-08-19T12:33:55;94467.31;;;33.73;31.27
3428;BME280;1727;42.624;23.406;2022-08-19T12:36:22;94455.41;;;33.64;30.96
3428;BME280;1727;42.624;23.406;2022-08-19T12:38:52;94463.63;;;33.59;30.88
3428;BME280;1727;42.624;23.406;2022-08-19T12:41:19;94458.66;;;33.66;30.00
3428;BME280;1727;42.624;23.406;2022-08-19T12:43:47;94451.34;;;33.62;29.95
3428;BME280;1727;42.624;23.406;2022-08-19T12:46:14;94452.50;;;33.50;30.28
3428;BME280;1727;42.624;23.406;2022-08-19T12:48:41;94449.84;;;33.45;30.17
3428;BME280;1727;42.624;23.406;2022-08-19T12:51:12;94449.06;;;33.40;30.34
3428;BME280;1727;42.624;23.406;2022-08-19T12:53:39;94449.25;;;33.48;30.74
3428;BME280;1727;42.624;23.406;2022-08-19T12:56:08;94447.88;;;33.56;31.48
3428;BME280;1727;42.624;23.406;2022-08-19T12:58:36;94446.72;;;33.62;31.88
3428;BME280;1727;42.624;23.406;2022-08-19T13:01:08;94442.38;;;33.61;30.50
3428;BME280;1727;42.624;23.406;2022-08-19T13:03:36;94436.41;;;33.59;30.56
3428;BME280;1727;42.624;23.406;2022-08-19T13:06:03;94444.03;;;33.57;31.41
3428;BME280;1727;42.624;23.406;2022-08-19T13:08:30;94437.94;;;33.70;31.41
3428;BME280;1727;42.624;23.406;2022-08-19T13:10:57;94437.03;;;33.80;32.37
3428;BME280;1727;42.624;23.406;2022-08-19T13:13:26;94440.28;;;33.87;31.16
3428;BME280;1727;42.624;23.406;2022-08-19T13:16:00;94439.69;;;33.90;30.84
3428;BME280;1727;42.624;23.406;2022-08-19T13:18:28;94436.63;;;33.97;31.06
3428;BME280;1727;42.624;23.406;2022-08-19T13:20:55;94427.94;;;33.95;30.63
3428;BME280;1727;42.624;23.406;2022-08-19T13:23:21;94431.81;;;33.89;30.48
3428;BME280;1727;42.624;23.406;2022-08-19T13:25:55;94426.91;;;33.91;30.42
3428;BME280;1727;42.624;23.406;2022-08-19T13:28:23;94422.31;;;33.81;30.47
3428;BME280;1727;42.624;23.406;2022-08-19T13:30:51;94426.13;;;33.85;31.26
3428;BME280;1727;42.624;23.406;2022-08-19T13:33:35;94425.84;;;33.86;31.09
3428;BME280;1727;42.624;23.406;2022-08-19T13:36:02;94420.69;;;33.80;31.89
3428;BME280;1727;42.624;23.406;2022-08-19T13:38:33;94419.41;;;33.72;31.02
3428;BME280;1727;42.624;23.406;2022-08-19T13:41:05;94418.06;;;33.70;30.88
3428;BME280;1727;42.624;23.406;2022-08-19T13:43:32;94409.91;;;33.70;31.17
3428;BME280;1727;42.624;23.406;2022-08-19T13:46:09;94411.41;;;33.81;31.09
3428;BME280;1727;42.624;23.406;2022-08-19T13:48:39;94408.94;;;33.90;32.36
3428;BME280;1727;42.624;23.406;2022-08-19T13:51:06;94407.78;;;33.96;31.71
3428;BME280;1727;42.624;23.406;2022-08-19T13:53:35;94404.47;;;33.99;30.82
3428;BME280;1727;42.624;23.406;2022-08-19T13:56:05;94402.56;;;33.99;31.39
3428;BME280;1727;42.624;23.406;2022-08-19T13:58:32;94399.78;;;34.04;30.64
3428;BME280;1727;42.624;23.406;2022-08-19T14:01:00;94402.78;;;34.03;30.37
3428;BME280;1727;42.624;23.406;2022-08-19T14:03:27;94400.59;;;34.05;31.49
3428;BME280;1727;42.624;23.406;2022-08-19T14:05:54;94390.81;;;34.04;30.98
3428;BME280;1727;42.624;23.406;2022-08-19T14:08:21;94395.16;;;34.05;30.75
3428;BME280;1727;42.624;23.406;2022-08-19T14:10:48;94397.34;;;34.03;30.70
3428;BME280;1727;42.624;23.406;2022-08-19T14:13:18;94396.53;;;34.02;31.49
3428;BME280;1727;42.624;23.406;2022-08-19T14:15:45;94393.31;;;34.00;31.60
3428;BME280;1727;42.624;23.406;2022-08-19T14:18:14;94399.56;;;34.01;30.60
3428;BME280;1727;42.624;23.406;2022-08-19T14:20:41;94390.88;;;33.99;31.25
3428;BME280;1727;42.624;23.406;2022-08-19T14:23:08;94392.50;;;34.00;31.33
3428;BME280;1727;42.624;23.406;2022-08-19T14:25:36;94383.50;;;33.99;32.31
3428;BME280;1727;42.624;23.406;2022-08-19T14:28:03;94382.69;;;33.99;31.88
3428;BME280;1727;42.624;23.406;2022-08-19T14:30:31;94385.13;;;34.00;32.49
3428;BME280;1727;42.624;23.406;2022-08-19T14:33:00;94378.59;;;34.01;32.61
3428;BME280;1727;42.624;23.406;2022-08-19T14:35:30;94377.19;;;34.04;32.75
3428;BME280;1727;42.624;23.406;2022-08-19T14:37:59;94382.13;;;34.02;32.16
3428;BME280;1727;42.624;23.406;2022-08-19T14:40:27;94373.94;;;34.02;32.16
3428;BME280;1727;42.624;23.406;2022-08-19T14:42:57;94375.34;;;33.99;32.27
3428;BME280;1727;42.624;23.406;2022-08-19T14:45:30;94378.06;;;33.99;31.41
3428;BME280;1727;42.624;23.406;2022-08-19T14:47:57;94370.88;;;33.84;31.10
3428;BME280;1727;42.624;23.406;2022-08-19T14:50:24;94370.88;;;33.84;31.61
3428;BME280;1727;42.624;23.406;2022-08-19T14:52:58;94367.88;;;33.81;31.95
3428;BME280;1727;42.624;23.406;2022-08-19T14:55:25;94371.84;;;33.65;31.55
3428;BME280;1727;42.624;23.406;2022-08-19T14:57:52;94364.63;;;33.50;32.62
3428;BME280;1727;42.624;23.406;2022-08-19T15:00:19;94362.69;;;33.55;32.35
3428;BME280;1727;42.624;23.406;2022-08-19T15:02:46;94363.78;;;33.54;32.48
3428;BME280;1727;42.624;23.406;2022-08-19T15:05:13;94359.72;;;33.52;32.47
3428;BME280;1727;42.624;23.406;2022-08-19T15:07:40;94361.13;;;33.44;33.18
3428;BME280;1727;42.624;23.406;2022-08-19T15:10:10;94363.53;;;33.51;32.19
3428;BME280;1727;42.624;23.406;2022-08-19T15:12:38;94369.59;;;33.43;33.14
3428;BME280;1727;42.624;23.406;2022-08-19T15:15:07;94367.88;;;33.52;31.66
3428;BME280;1727;42.624;23.406;2022-08-19T15:17:34;94373.94;;;33.44;32.99
3428;BME280;1727;42.624;23.406;2022-08-19T15:20:03;94365.81;;;33.39;32.14
3428;BME280;1727;42.624;23.406;2022-08-19T15:22:30;94365.06;;;33.28;32.07
3428;BME280;1727;42.624;23.406;2022-08-19T15:24:57;94364.78;;;33.35;32.65
3428;BME280;1727;42.624;23.406;2022-08-19T15:27:25;94356.63;;;33.35;32.62
3428;BME280;1727;42.624;23.406;2022-08-19T15:29:52;94359.63;;;33.33;32.52
3428;BME280;1727;42.624;23.406;2022-08-19T15:32:19;94360.44;;;33.29;32.17
3428;BME280;1727;42.624;23.406;2022-08-19T15:34:46;94348.22;;;33.31;33.01
3428;BME280;1727;42.624;23.406;2022-08-19T15:37:14;94360.44;;;33.29;33.64
3428;BME280;1727;42.624;23.406;2022-08-19T15:39:42;94355.59;;;33.20;33.04
3428;BME280;1727;42.624;23.406;2022-08-19T15:42:16;94349.38;;;33.15;33.33
3428;BME280;1727;42.624;23.406;2022-08-19T15:44:46;94356.59;;;33.01;32.96
3428;BME280;1727;42.624;23.406;2022-08-19T15:47:13;94362.31;;;32.99;32.93
3428;BME280;1727;42.624;23.406;2022-08-19T15:49:44;94355.34;;;32.83;33.38
3428;BME280;1727;42.624;23.406;2022-08-19T15:52:11;94358.88;;;32.83;32.92
3428;BME280;1727;42.624;23.406;2022-08-19T15:54:38;94352.34;;;32.84;32.06
3428;BME280;1727;42.624;23.406;2022-08-19T15:57:05;94360.19;;;32.86;32.75
3428;BME280;1727;42.624;23.406;2022-08-19T15:59:51;94360.25;;;32.81;32.26
3428;BME280;1727;42.624;23.406;2022-08-19T16:02:35;94359.16;;;32.77;32.83
3428;BME280;1727;42.624;23.406;2022-08-19T16:05:22;94357.53;;;32.76;33.25
3428;BME280;1727;42.624;23.406;2022-08-19T16:08:07;94362.47;;;32.69;32.88
3428;BME280;1727;42.624;23.406;2022-08-19T16:10:34;94368.44;;;32.65;33.50
3428;BME280;1727;42.624;23.406;2022-08-19T16:13:02;94369.00;;;32.62;33.62
3428;BME280;1727;42.624;23.406;2022-08-19T16:15:31;94366.59;;;32.56;33.84
3428;BME280;1727;42.624;23.406;2022-08-19T16:17:59;94365.00;;;32.50;33.75
3428;BME280;1727;42.624;23.406;2022-08-19T16:20:28;94365.56;;;32.47;34.13
3428;BME280;1727;42.624;23.406;2022-08-19T16:23:06;94362.88;;;32.42;33.69
3428;BME280;1727;42.624;23.406;2022-08-19T16:25:36;94367.50;;;32.41;34.14
3428;BME280;1727;42.624;23.406;2022-08-19T16:28:03;94358.53;;;32.35;33.96
3428;BME280;1727;42.624;23.406;2022-08-19T16:30:32;94360.44;;;32.35;34.39
3428;BME280;1727;42.624;23.406;2022-08-19T16:32:59;94368.88;;;32.33;33.77
3428;BME280;1727;42.624;23.406;2022-08-19T16:35:26;94361.53;;;32.34;34.72
3428;BME280;1727;42.624;23.406;2022-08-19T16:37:53;94365.38;;;32.28;35.02
3428;BME280;1727;42.624;23.406;2022-08-19T16:40:21;94361.03;;;32.27;34.88
3428;BME280;1727;42.624;23.406;2022-08-19T16:42:49;94361.03;;;32.22;34.71
3428;BME280;1727;42.624;23.406;2022-08-19T16:45:18;94370.81;;;32.18;34.97
3428;BME280;1727;42.624;23.406;2022-08-19T16:47:47;94364.06;;;32.10;36.00
3428;BME280;1727;42.624;23.406;2022-08-19T16:50:14;94369.75;;;32.09;36.24
3428;BME280;1727;42.624;23.406;2022-08-19T16:52:42;94370.56;;;32.09;36.24
3428;BME280;1727;42.624;23.406;2022-08-19T16:55:10;94367.38;;;31.92;36.74
3428;BME280;1727;42.624;23.406;2022-08-19T16:57:38;94371.19;;;31.91;37.49
3428;BME280;1727;42.624;23.406;2022-08-19T17:00:06;94363.88;;;31.86;37.08
3428;BME280;1727;42.624;23.406;2022-08-19T17:02:35;94373.88;;;31.91;37.67
3428;BME280;1727;42.624;23.406;2022-08-19T17:05:06;94375.50;;;31.92;38.35
3428;BME280;1727;42.624;23.406;2022-08-19T17:07:34;94371.44;;;31.89;38.66
3428;BME280;1727;42.624;23.406;2022-08-19T17:10:02;94381.78;;;31.82;39.88
3428;BME280;1727;42.624;23.406;2022-08-19T17:12:29;94385.31;;;31.78;40.28
3428;BME280;1727;42.624;23.406;2022-08-19T17:14:56;94383.69;;;31.71;40.30
3428;BME280;1727;42.624;23.406;2022-08-19T17:17:23;94385.56;;;31.66;40.96
3428;BME280;1727;42.624;23.406;2022-08-19T17:19:50;94388.56;;;31.59;41.73
3428;BME280;1727;42.624;23.406;2022-08-19T17:22:19;94391.00;;;31.51;41.20
3428;BME280;1727;42.624;23.406;2022-08-19T17:24:46;94385.88;;;31.39;41.88
3428;BME280;1727;42.624;23.406;2022-08-19T17:27:12;94397.81;;;31.33;44.68
3428;BME280;1727;42.624;23.406;2022-08-19T17:29:39;94394.00;;;31.24;45.34
3428;BME280;1727;42.624;23.406;2022-08-19T17:32:06;94397.47;;;31.09;45.19
3428;BME280;1727;42.624;23.406;2022-08-19T17:34:34;94400.16;;;30.94;45.50
3428;BME280;1727;42.624;23.406;2022-08-19T17:37:01;94412.06;;;30.82;46.53
3428;BME280;1727;42.624;23.406;2022-08-19T17:39:50;94406.09;;;30.75;46.23
3428;BME280;1727;42.624;23.406;2022-08-19T17:42:17;94416.94;;;30.70;46.21
3428;BME280;1727;42.624;23.406;2022-08-19T17:44:44;94417.16;;;30.64;47.22
3428;BME280;1727;42.624;23.406;2022-08-19T17:47:11;94414.69;;;30.57;47.44
3428;BME280;1727;42.624;23.406;2022-08-19T17:49:38;94426.28;;;30.47;46.96
3428;BME280;1727;42.624;23.406;2022-08-19T17:52:05;94420.59;;;30.44;48.15
3428;BME280;1727;42.624;23.406;2022-08-19T17:54:32;94435.16;;;30.33;47.76
3428;BME280;1727;42.624;23.406;2022-08-19T17:57:00;94431.63;;;30.27;47.19
3428;BME280;1727;42.624;23.406;2022-08-19T17:59:27;94430.22;;;30.19;47.61
3428;BME280;1727;42.624;23.406;2022-08-19T18:01:54;94434.53;;;30.10;47.36
3428;BME280;1727;42.624;23.406;2022-08-19T18:04:22;94438.56;;;30.08;48.67
3428;BME280;1727;42.624;23.406;2022-08-19T18:06:49;94440.63;;;29.96;47.82
3428;BME280;1727;42.624;23.406;2022-08-19T18:09:19;94441.97;;;29.93;48.85
3428;BME280;1727;42.624;23.406;2022-08-19T18:11:46;94443.56;;;29.89;48.33
3428;BME280;1727;42.624;23.406;2022-08-19T18:14:14;94436.50;;;29.83;48.77
3428;BME280;1727;42.624;23.406;2022-08-19T18:16:41;94438.66;;;29.81;49.90
3428;BME280;1727;42.624;23.406;2022-08-19T18:19:10;94442.63;;;29.73;49.35
3428;BME280;1727;42.624;23.406;2022-08-19T18:21:37;94443.97;;;29.71;48.52
3428;BME280;1727;42.624;23.406;2022-08-19T18:24:05;94442.03;;;29.66;49.85
3428;BME280;1727;42.624;23.406;2022-08-19T18:26:32;94447.72;;;29.65;49.29
3428;BME280;1727;42.624;23.406;2022-08-19T18:28:59;94451.50;;;29.64;48.01
3428;BME280;1727;42.624;23.406;2022-08-19T18:31:27;94445.53;;;29.62;50.34
3428;BME280;1727;42.624;23.406;2022-08-19T18:33:54;94455.81;;;29.65;48.72
3428;BME280;1727;42.624;23.406;2022-08-19T18:36:21;94454.97;;;29.59;49.56
3428;BME280;1727;42.624;23.406;2022-08-19T18:38:48;94460.34;;;29.54;49.33
3428;BME280;1727;42.624;23.406;2022-08-19T18:41:37;94461.56;;;29.41;50.74
3428;BME280;1727;42.624;23.406;2022-08-19T18:44:21;94453.97;;;29.38;50.17
3428;BME280;1727;42.624;23.406;2022-08-19T18:54:09;94454.91;;;29.22;49.63
3428;BME280;1727;42.624;23.406;2022-08-19T18:56:37;94460.25;;;29.17;49.27
3428;BME280;1727;42.624;23.406;2022-08-19T18:59:09;94456.97;;;29.15;50.52
3428;BME280;1727;42.624;23.406;2022-08-19T19:01:40;94460.97;;;29.07;50.03
3428;BME280;1727;42.624;23.406;2022-08-19T19:04:11;94462.28;;;29.05;51.37
3428;BME280;1727;42.624;23.406;2022-08-19T19:06:40;94460.63;;;28.98;50.92
3428;BME280;1727;42.624;23.406;2022-08-19T19:09:10;94470.88;;;28.96;51.13
3428;BME280;1727;42.624;23.406;2022-08-19T19:11:40;94469.25;;;28.95;51.65
3428;BME280;1727;42.624;23.406;2022-08-19T19:20:51;94491.34;;;28.71;51.75
3428;BME280;1727;42.624;23.406;2022-08-19T19:23:18;94489.31;;;28.61;52.56
3428;BME280;1727;42.624;23.406;2022-08-19T19:25:47;94493.34;;;28.58;50.70
3428;BME280;1727;42.624;23.406;2022-08-19T19:28:14;94501.31;;;28.48;52.21
3428;BME280;1727;42.624;23.406;2022-08-19T19:30:41;94496.69;;;28.44;51.13
3428;BME280;1727;42.624;23.406;2022-08-19T19:33:08;94506.41;;;28.45;51.04
3428;BME280;1727;42.624;23.406;2022-08-19T19:35:35;94503.97;;;28.43;52.19
3428;BME280;1727;42.624;23.406;2022-08-19T19:38:02;94505.78;;;28.37;52.30
3428;BME280;1727;42.624;23.406;2022-08-19T19:40:28;94511.19;;;28.37;50.58
3428;BME280;1727;42.624;23.406;2022-08-19T19:42:57;94516.72;;;28.31;51.13
3428;BME280;1727;42.624;23.406;2022-08-19T19:45:24;94515.66;;;28.32;52.28
3428;BME280;1727;42.624;23.406;2022-08-19T19:47:52;94504.16;;;28.20;50.55
3428;BME280;1727;42.624;23.406;2022-08-19T19:50:19;94510.34;;;28.20;50.35
3428;BME280;1727;42.624;23.406;2022-08-19T19:52:46;94513.56;;;28.17;50.80
3428;BME280;1727;42.624;23.406;2022-08-19T19:55:15;94513.50;;;28.12;52.02
3428;BME280;1727;42.624;23.406;2022-08-19T19:57:43;94518.06;;;28.12;51.49
3428;BME280;1727;42.624;23.406;2022-08-19T20:00:14;94515.06;;;28.08;51.30
3428;BME280;1727;42.624;23.406;2022-08-19T20:02:42;94514.25;;;28.07;51.44
3428;BME280;1727;42.624;23.406;2022-08-19T20:05:09;94517.59;;;27.98;51.62
3428;BME280;1727;42.624;23.406;2022-08-19T20:07:36;94519.47;;;27.97;51.48
3428;BME280;1727;42.624;23.406;2022-08-19T20:10:20;94522.09;;;27.92;51.21
3428;BME280;1727;42.624;23.406;2022-08-19T20:12:47;94515.31;;;27.90;51.77
3428;BME280;1727;42.624;23.406;2022-08-19T20:15:17;94519.63;;;27.91;51.01
3428;BME280;1727;42.624;23.406;2022-08-19T20:17:45;94526.91;;;27.90;50.90
3428;BME280;1727;42.624;23.406;2022-08-19T20:20:17;94521.38;;;27.80;50.72
3428;BME280;1727;42.624;23.406;2022-08-19T20:22:45;94515.56;;;27.71;50.44
3428;BME280;1727;42.624;23.406;2022-08-19T20:25:13;94513.34;;;27.68;51.97
3428;BME280;1727;42.624;23.406;2022-08-19T20:27:41;94516.59;;;27.54;51.33
3428;BME280;1727;42.624;23.406;2022-08-19T20:30:11;94522.28;;;27.40;50.86
3428;BME280;1727;42.624;23.406;2022-08-19T20:32:40;94524.06;;;27.35;53.44
3428;BME280;1727;42.624;23.406;2022-08-19T20:35:09;94528.66;;;27.34;51.35
3428;BME280;1727;42.624;23.406;2022-08-19T20:37:35;94524.91;;;27.35;51.50
3428;BME280;1727;42.624;23.406;2022-08-19T20:40:04;94519.50;;;27.35;51.59
3428;BME280;1727;42.624;23.406;2022-08-19T20:42:34;94530.19;;;27.30;52.35
3428;BME280;1727;42.624;23.406;2022-08-19T20:45:02;94534.78;;;27.30;51.73
3428;BME280;1727;42.624;23.406;2022-08-19T20:47:33;94529.13;;;27.31;52.30
3428;BME280;1727;42.624;23.406;2022-08-19T20:50:02;94542.84;;;27.30;52.15
3428;BME280;1727;42.624;23.406;2022-08-19T20:52:30;94555.41;;;26.84;53.22
3428;BME280;1727;42.624;23.406;2022-08-19T20:54:57;94563.97;;;26.81;53.55
3428;BME280;1727;42.624;23.406;2022-08-19T20:57:24;94554.88;;;26.70;54.44
3428;BME280;1727;42.624;23.406;2022-08-19T20:59:50;94552.47;;;26.85;54.67
3428;BME280;1727;42.624;23.406;2022-08-19T21:02:18;94555.63;;;26.94;54.70
3428;BME280;1727;42.624;23.406;2022-08-19T21:04:45;94559.59;;;27.03;55.68
3428;BME280;1727;42.624;23.406;2022-08-19T21:07:14;94561.66;;;27.13;54.63
3428;BME280;1727;42.624;23.406;2022-08-19T21:09:41;94569.38;;;27.21;56.22
3428;BME280;1727;42.624;23.406;2022-08-19T21:12:13;94559.50;;;27.27;54.03
3428;BME280;1727;42.624;23.406;2022-08-19T21:14:41;94563.84;;;27.28;54.11
3428;BME280;1727;42.624;23.406;2022-08-19T21:17:08;94565.47;;;27.29;53.30
3428;BME280;1727;42.624;23.406;2022-08-19T21:19:35;94560.34;;;27.15;52.79
3428;BME280;1727;42.624;23.406;2022-08-19T21:22:03;94555.09;;;27.21;53.24
3428;BME280;1727;42.624;23.406;2022-08-19T21:24:31;94556.25;;;27.25;53.65
3428;BME280;1727;42.624;23.406;2022-08-19T21:26:58;94551.81;;;27.19;52.68
3428;BME280;1727;42.624;23.406;2022-08-19T21:29:25;94556.78;;;26.98;53.12
3428;BME280;1727;42.624;23.406;2022-08-19T21:31:52;94546.41;;;26.90;53.26
3428;BME280;1727;42.624;23.406;2022-08-19T21:34:19;94555.66;;;26.82;53.59
3428;BME280;1727;42.624;23.406;2022-08-19T21:36:45;94560.69;;;26.79;53.30
3428;BME280;1727;42.624;23.406;2022-08-19T21:39:12;94566.66;;;26.81;53.58
3428;BME280;1727;42.624;23.406;2022-08-19T21:41:40;94567.03;;;26.73;53.93
3428;BME280;1727;42.624;23.406;2022-08-19T21:44:07;94567.88;;;26.62;54.07
3428;BME280;1727;42.624;23.406;2022-08-19T21:46:34;94568.94;;;26.61;53.90
3428;BME280;1727;42.624;23.406;2022-08-19T21:49:02;94558.53;;;26.52;53.75
3428;BME280;1727;42.624;23.406;2022-08-19T21:51:29;94557.47;;;26.53;54.44
3428;BME280;1727;42.624;23.406;2022-08-19T21:53:56;94556.88;;;26.51;54.19
3428;BME280;1727;42.624;23.406;2022-08-19T21:56:23;94550.56;;;26.58;54.82
3428;BME280;1727;42.624;23.406;2022-08-19T21:58:51;94549.16;;;26.67;54.12
3428;BME280;1727;42.624;23.406;2022-08-19T22:01:19;94556.66;;;26.65;53.58
3428;BME280;1727;42.624;23.406;2022-08-19T22:03:46;94553.72;;;26.66;53.62
3428;BME280;1727;42.624;23.406;2022-08-19T22:06:13;94550.78;;;26.68;53.59
3428;BME280;1727;42.624;23.406;2022-08-19T22:08:40;94561.06;;;26.71;53.78
3428;BME280;1727;42.624;23.406;2022-08-19T22:11:09;94556.03;;;26.74;53.41
3428;BME280;1727;42.624;23.406;2022-08-19T22:13:36;94556.50;;;26.71;53.47
3428;BME280;1727;42.624;23.406;2022-08-19T22:16:05;94550.63;;;26.74;53.24
3428;BME280;1727;42.624;23.406;2022-08-19T22:18:33;94552.84;;;26.89;54.65
3428;BME280;1727;42.624;23.406;2022-08-19T22:21:00;94549.25;;;26.72;54.19
3428;BME280;1727;42.624;23.406;2022-08-19T22:23:28;94551.59;;;26.57;54.31
3428;BME280;1727;42.624;23.406;2022-08-19T22:25:55;94542.94;;;26.66;54.43
3428;BME280;1727;42.624;23.406;2022-08-19T22:28:22;94533.09;;;26.72;53.72
3428;BME280;1727;42.624;23.406;2022-08-19T22:30:49;94527.13;;;26.70;53.74
3428;BME280;1727;42.624;23.406;2022-08-19T22:33:18;94532.19;;;26.66;54.16
3428;BME280;1727;42.624;23.406;2022-08-19T22:35:47;94533.09;;;26.72;54.65
3428;BME280;1727;42.624;23.406;2022-08-19T22:38:16;94523.03;;;26.67;54.02
3428;BME280;1727;42.624;23.406;2022-08-19T22:40:45;94524.94;;;26.55;54.29
3428;BME280;1727;42.624;23.406;2022-08-19T22:43:15;94516.28;;;26.65;54.35
3428;BME280;1727;42.624;23.406;2022-08-19T22:45:43;94522.22;;;26.67;54.43
3428;BME280;1727;42.624;23.406;2022-08-19T22:48:13;94523.28;;;26.66;54.04
3428;BME280;1727;42.624;23.406;2022-08-19T22:50:44;94519.78;;;26.65;54.81
3428;BME280;1727;42.624;23.406;2022-08-19T22:53:32;94516.75;;;26.50;56.55
3428;BME280;1727;42.624;23.406;2022-08-19T22:55:59;94510.88;;;26.65;55.67
3428;BME280;1727;42.624;23.406;2022-08-19T22:58:26;94514.81;;;26.74;55.60
3428;BME280;1727;42.624;23.406;2022-08-19T23:00:54;94514.25;;;26.72;53.92
3428;BME280;1727;42.624;23.406;2022-08-19T23:03:21;94515.41;;;26.76;56.02
3428;BME280;1727;42.624;23.406;2022-08-19T23:05:49;94518.34;;;26.74;54.31
3428;BME280;1727;42.624;23.406;2022-08-19T23:08:16;94521.28;;;26.73;54.92
3428;BME280;1727;42.624;23.406;2022-08-19T23:10:43;94521.28;;;26.73;54.30
3428;BME280;1727;42.624;23.406;2022-08-19T23:13:11;94514.41;;;26.65;54.35
3428;BME280;1727;42.624;23.406;2022-08-19T23:15:42;94511.03;;;26.46;54.26
3428;BME280;1727;42.624;23.406;2022-08-19T23:18:10;94502.88;;;26.41;54.65